createdAt,value
2023-01-30T01:16:18.133Z,0.47
2023-01-30T01:18:51.000Z,0.42
2023-01-30T01:21:24.204Z,0.40
2023-01-30T01:24:00.184Z,0.42
2023-01-30T01:26:32.884Z,0.43
2023-01-30T01:29:05.465Z,0.40
2023-01-30T01:31:38.550Z,0.37
2023-01-30T01:34:11.990Z,0.34
2023-01-30T01:36:53.869Z,0.30
2023-01-30T01:39:18.117Z,0.29
2023-01-30T01:41:51.008Z,0.25
2023-01-30T01:44:25.415Z,0.23
2023-01-30T01:46:59.778Z,0.18
2023-01-30T01:49:36.320Z,0.16
2023-01-30T01:52:16.860Z,0.17
2023-01-30T01:54:56.518Z,0.21
2023-01-30T02:00:26.635Z,0.27
2023-01-30T02:03:03.346Z,0.23
2023-01-30T02:05:39.656Z,0.25
2023-01-30T02:08:17.046Z,0.24
2023-01-30T02:11:11.969Z,0.24
2023-01-30T02:13:47.491Z,0.21
2023-01-30T02:16:20.003Z,0.23
2023-01-30T02:18:52.486Z,0.21
2023-01-30T02:21:56.581Z,0.25
2023-01-30T02:24:42.555Z,0.32
2023-01-30T02:27:20.068Z,0.34
2023-01-30T02:30:24.798Z,0.40
2023-01-30T02:36:09.065Z,0.51
2023-01-30T02:38:59.514Z,0.49
2023-01-30T02:42:11.809Z,0.44
2023-01-30T02:45:07.215Z,0.45
2023-01-30T02:48:04.811Z,0.47
2023-01-30T02:50:51.289Z,0.50
2023-01-30T02:53:24.245Z,0.48
2023-01-30T02:55:57.511Z,0.43
2023-01-30T02:58:38.551Z,0.40
2023-01-30T03:05:04.271Z,0.44
2023-01-30T03:08:03.959Z,0.50
2023-01-30T03:10:50.792Z,0.51
2023-01-30T03:13:41.283Z,0.53
2023-01-30T03:16:34.408Z,0.53
2023-01-30T03:19:09.425Z,0.56
2023-01-30T03:21:46.659Z,0.57
2023-01-30T03:24:19.156Z,0.55
2023-01-30T03:27:04.642Z,0.55
2023-01-30T03:29:37.358Z,0.53
2023-01-30T03:32:10.281Z,0.54
2023-01-30T03:34:42.878Z,0.52
2023-01-30T03:37:15.479Z,0.54
2023-01-30T03:39:48.041Z,0.51
2023-01-30T03:42:21.448Z,0.52
2023-01-30T03:44:54.093Z,0.53
2023-01-30T03:47:27.296Z,0.58
2023-01-30T03:50:00.028Z,0.54
2023-01-30T03:52:32.691Z,0.51
2023-01-30T03:55:05.152Z,0.50
2023-01-30T03:57:38.418Z,0.52
2023-01-30T04:00:12.412Z,0.52
2023-01-30T04:02:54.633Z,0.51
2023-01-30T04:05:27.770Z,0.48
2023-01-30T04:08:03.461Z,0.43
2023-01-30T04:10:36.225Z,0.38
2023-01-30T04:13:09.264Z,0.36
2023-01-30T04:15:42.216Z,0.41
2023-01-30T04:18:30.805Z,0.42
2023-01-30T04:21:05.432Z,0.40
2023-01-30T04:23:39.512Z,0.34
2023-01-30T04:26:12.606Z,0.35
2023-01-30T04:28:45.208Z,0.36
2023-01-30T04:31:17.969Z,0.31
2023-01-30T04:33:52.860Z,0.28
2023-01-30T04:36:26.018Z,0.28
2023-01-30T04:38:58.597Z,0.29
2023-01-30T04:41:31.754Z,0.30
2023-01-30T04:44:05.449Z,0.30
2023-01-30T04:46:45.536Z,0.34
2023-01-30T04:49:18.193Z,0.30
2023-01-30T04:51:51.966Z,0.27
2023-01-30T04:54:25.012Z,0.29
2023-01-30T04:56:57.897Z,0.32
2023-01-30T04:59:30.196Z,0.37
2023-01-30T05:02:04.321Z,0.41
2023-01-30T05:04:38.412Z,0.48
2023-01-30T05:07:12.082Z,0.55
2023-01-30T05:09:44.997Z,0.59
2023-01-30T05:12:17.543Z,0.62
2023-01-30T05:14:50.052Z,0.66
2023-01-30T05:17:23.171Z,0.70
2023-01-30T05:19:55.822Z,0.72
2023-01-30T05:22:28.301Z,0.78
2023-01-30T05:25:00.976Z,0.78
2023-01-30T05:27:33.867Z,0.79
2023-01-30T05:30:29.066Z,0.79
2023-01-30T05:33:01.656Z,0.81
2023-01-30T05:35:34.258Z,0.75
2023-01-30T05:38:06.817Z,0.72
2023-01-30T05:40:39.558Z,0.72
2023-01-30T05:43:12.289Z,0.72
2023-01-30T05:45:45.006Z,0.72
2023-01-30T05:48:17.403Z,0.70
2023-01-30T05:50:52.143Z,0.69
2023-01-30T05:53:46.310Z,0.71
2023-01-30T05:56:19.280Z,0.76
2023-01-30T05:58:57.985Z,0.77
2023-01-30T06:01:30.796Z,0.74
2023-01-30T06:04:03.314Z,0.70
2023-01-30T06:06:35.991Z,0.67
2023-01-30T06:09:08.459Z,0.58
2023-01-30T06:11:40.937Z,0.61
2023-01-30T06:14:13.279Z,0.60
2023-01-30T06:16:45.678Z,0.58
2023-01-30T06:19:18.364Z,0.59
2023-01-30T06:21:50.783Z,0.63
2023-01-30T06:24:23.161Z,0.67
2023-01-30T06:26:55.647Z,0.71
2023-01-30T06:29:29.442Z,0.74
2023-01-30T06:32:01.957Z,0.81
2023-01-30T06:34:34.560Z,0.81
2023-01-30T06:37:07.268Z,0.78
2023-01-30T06:39:39.805Z,0.76
2023-01-30T06:42:12.177Z,0.79
2023-01-30T06:44:44.802Z,0.82
2023-01-30T06:47:17.289Z,0.85
2023-01-30T06:49:49.777Z,0.87
2023-01-30T06:52:23.446Z,0.84
2023-01-30T06:54:55.919Z,0.84
2023-01-30T06:57:28.306Z,0.82
2023-01-30T07:00:00.971Z,0.80
2023-01-30T07:02:35.604Z,0.79
2023-01-30T07:05:09.578Z,0.72
2023-01-30T07:07:42.036Z,0.71
2023-01-30T07:10:14.589Z,0.78
2023-01-30T07:12:48.412Z,0.80
2023-01-30T07:15:21.937Z,0.86
2023-01-30T07:17:54.597Z,0.88
2023-01-30T07:20:27.402Z,0.89
2023-01-30T07:23:00.041Z,0.91
2023-01-30T07:25:32.806Z,0.90
2023-01-30T07:28:05.699Z,0.89
2023-01-30T07:30:38.237Z,0.88
2023-01-30T07:33:10.859Z,0.89
2023-01-30T07:35:43.379Z,0.89
2023-01-30T07:38:15.686Z,0.86
2023-01-30T07:40:48.076Z,0.86
2023-01-30T07:43:21.491Z,0.87
2023-01-30T07:45:54.160Z,0.86
2023-01-30T07:48:26.865Z,0.85
2023-01-30T07:50:59.273Z,0.88
2023-01-30T07:53:31.940Z,0.88
2023-01-30T07:56:11.680Z,0.88
2023-01-30T07:58:44.111Z,0.87
2023-01-30T08:01:16.970Z,0.92
2023-01-30T08:03:50.263Z,0.94
2023-01-30T08:06:23.165Z,0.95
2023-01-30T08:08:55.982Z,0.96
2023-01-30T08:11:28.670Z,1.01
2023-01-30T08:14:01.425Z,1.06
2023-01-30T08:16:34.317Z,1.07
2023-01-30T08:19:07.403Z,1.12
2023-01-30T08:21:40.598Z,1.20
2023-01-30T10:28:25.705Z,1.09
2023-01-30T10:31:08.724Z,1.14
2023-01-30T10:34:00.783Z,1.18
2023-01-30T10:36:58.298Z,1.18
2023-01-30T10:39:55.592Z,1.19
2023-01-30T10:42:30.938Z,1.20
2023-01-30T10:45:14.167Z,1.15
2023-01-30T10:48:10.731Z,1.14
2023-01-30T10:51:03.792Z,1.16
2023-01-30T10:53:53.334Z,1.19
2023-01-30T10:56:53.963Z,1.19
2023-01-30T10:59:38.721Z,1.15
2023-01-30T11:02:29.227Z,1.11
2023-01-30T11:05:05.539Z,1.18
2023-01-30T11:07:38.361Z,1.24
2023-01-30T11:10:21.111Z,1.30
2023-01-30T11:13:18.806Z,1.32
2023-01-30T11:15:53.891Z,1.33
2023-01-30T11:19:18.277Z,1.35
2023-01-30T11:21:07.914Z,1.35
2023-01-30T11:23:44.799Z,1.38
2023-01-30T11:26:37.816Z,1.46
2023-01-30T11:29:01.330Z,1.47
2023-01-30T11:31:41.314Z,1.52
2023-01-30T11:34:16.558Z,1.50
2023-01-30T11:36:49.689Z,1.54
2023-01-30T11:39:24.542Z,1.50
2023-01-30T11:42:01.930Z,1.44
2023-01-30T11:44:37.174Z,1.41
2023-01-30T11:47:20.985Z,1.44
2023-01-30T11:50:03.619Z,1.51
2023-01-30T11:52:35.230Z,1.59
2023-01-30T11:55:11.361Z,1.60
2023-01-30T11:57:54.170Z,1.65
2023-01-30T12:00:39.479Z,1.64
2023-01-30T12:03:14.115Z,1.64
2023-01-30T12:05:47.912Z,1.60
2023-01-30T12:08:42.854Z,1.62
2023-01-30T12:11:29.496Z,1.64
2023-01-30T12:14:39.872Z,1.66
2023-01-30T12:17:52.083Z,1.67
2023-01-30T12:21:01.764Z,1.72
2023-01-30T12:23:59.429Z,1.72
2023-01-30T12:26:54.506Z,1.67
2023-01-30T12:30:07.661Z,1.64
2023-01-30T12:32:40.727Z,1.62
2023-01-30T12:35:20.415Z,1.59
2023-01-30T12:38:12.688Z,1.61
2023-01-30T12:41:05.077Z,1.61
2023-01-30T12:44:15.452Z,1.64
2023-01-30T12:47:15.171Z,1.64
2023-01-30T12:50:33.294Z,1.64
2023-01-30T12:53:28.686Z,1.62
2023-01-30T12:56:29.647Z,1.65
2023-01-30T12:59:21.668Z,1.59
2023-01-30T13:02:15.807Z,1.55
2023-01-30T13:05:21.533Z,1.58
2023-01-30T13:08:19.226Z,1.64
2023-01-30T13:11:18.303Z,1.61
2023-01-30T13:13:58.571Z,1.59
2023-01-30T13:16:38.299Z,1.62
2023-01-30T13:19:20.892Z,1.65
2023-01-30T13:22:12.344Z,1.65
2023-01-30T13:25:01.551Z,1.64
2023-01-30T13:27:37.239Z,1.67
2023-01-30T13:30:16.610Z,1.68
2023-01-30T13:32:51.402Z,1.71
2023-01-30T13:35:26.320Z,1.72
2023-01-30T13:37:58.553Z,1.72
2023-01-30T13:40:38.620Z,1.72
2023-01-30T13:43:18.862Z,1.72
2023-01-30T13:45:52.901Z,1.71
2023-01-30T13:49:00.281Z,1.71
2023-01-30T13:51:51.154Z,1.70
2023-01-30T13:54:57.420Z,1.76
2023-01-30T13:58:00.677Z,1.79
2023-01-30T14:00:55.051Z,1.80
2023-01-30T14:03:30.700Z,1.78
2023-01-30T14:06:15.398Z,1.72
2023-01-30T14:08:51.632Z,1.70
2023-01-30T14:11:40.304Z,1.68
2023-01-30T14:14:50.244Z,1.71
2023-01-30T14:17:22.890Z,1.73
2023-01-30T14:20:06.937Z,1.75
2023-01-30T14:23:29.297Z,1.72
2023-01-30T14:26:01.844Z,1.75
2023-01-30T14:28:46.986Z,1.79
2023-01-30T14:31:41.248Z,1.77
2023-01-30T14:34:49.072Z,1.74
2023-01-30T14:37:47.022Z,1.67
2023-01-30T14:40:29.900Z,1.67
2023-01-30T14:43:28.404Z,1.64
2023-01-30T14:46:03.015Z,1.63
2023-01-30T14:48:41.748Z,1.60
2023-01-30T14:51:43.900Z,1.59
2023-01-30T14:54:23.411Z,1.59
2023-01-30T14:57:18.722Z,1.60
2023-01-30T15:00:17.306Z,1.60
2023-01-30T15:02:42.333Z,1.59
2023-01-30T15:05:18.736Z,1.58
2023-01-30T15:08:17.134Z,1.59
2023-01-30T15:11:15.343Z,1.56
2023-01-30T15:14:05.145Z,1.55
2023-01-30T15:17:07.084Z,1.59
2023-01-30T15:20:00.137Z,1.55
2023-01-30T15:23:20.041Z,1.51
2023-01-30T15:26:21.826Z,1.46
2023-01-30T15:29:16.752Z,1.46
2023-01-30T15:32:03.722Z,1.46
2023-01-30T15:34:39.512Z,1.44
2023-01-30T15:37:33.365Z,1.47
2023-01-30T15:40:19.472Z,1.49
2023-01-30T15:43:32.360Z,1.51
2023-01-30T15:46:21.203Z,1.51
2023-01-30T15:49:19.612Z,1.55
2023-01-30T15:51:52.207Z,1.49
2023-01-30T15:54:27.113Z,1.39
2023-01-30T15:57:00.653Z,1.33
2023-01-30T15:59:40.217Z,1.31
2023-01-30T16:02:33.649Z,1.28
2023-01-30T16:05:21.649Z,1.29
2023-01-30T16:07:57.577Z,1.29
2023-01-30T16:10:31.691Z,1.34
2023-01-30T16:13:05.239Z,1.36
2023-01-30T17:12:38.025Z,1.60
2023-01-30T17:15:19.183Z,1.54
2023-01-30T17:17:52.533Z,1.51
2023-01-30T17:20:25.165Z,1.49
2023-01-30T17:22:58.117Z,1.49
2023-01-30T17:25:36.004Z,1.46
2023-01-30T17:28:09.248Z,1.44
2023-01-30T17:30:41.926Z,1.42
2023-01-30T17:33:14.611Z,1.41
2023-01-30T17:35:47.393Z,1.41
2023-01-30T17:38:20.170Z,1.42
2023-01-30T17:40:53.795Z,1.39
2023-01-30T17:43:26.602Z,1.37
2023-01-30T17:45:59.224Z,1.34
2023-01-30T17:48:31.759Z,1.34
2023-01-30T17:51:04.157Z,1.35
2023-01-30T17:53:36.735Z,1.32
2023-01-30T17:56:21.804Z,1.35
2023-01-30T17:58:55.606Z,1.39
2023-01-30T18:01:28.834Z,1.41
2023-01-30T18:04:01.396Z,1.43
2023-01-30T18:06:34.032Z,1.41
2023-01-30T18:09:06.731Z,1.39
2023-01-30T18:11:40.179Z,1.38
2023-01-30T18:14:12.761Z,1.36
2023-01-30T18:16:45.164Z,1.34
2023-01-30T18:19:19.004Z,1.36
2023-01-30T18:21:51.351Z,1.34
2023-01-30T18:24:24.063Z,1.33
2023-01-30T18:26:56.533Z,1.31
2023-01-30T18:29:29.275Z,1.29
2023-01-30T18:32:03.559Z,1.28
2023-01-30T18:34:38.038Z,1.23
2023-01-30T18:37:10.522Z,1.20
2023-01-30T18:39:43.641Z,1.19
2023-01-30T18:42:16.391Z,1.19
2023-01-30T18:44:49.018Z,1.17
2023-01-30T18:47:22.029Z,1.17
2023-01-30T18:49:54.373Z,1.19
2023-01-30T18:52:26.837Z,1.19
2023-01-30T18:55:00.547Z,1.16
2023-01-30T18:57:33.461Z,1.12
2023-01-30T19:00:07.135Z,1.11
2023-01-30T19:02:39.627Z,1.11
2023-01-30T19:05:12.319Z,1.11
2023-01-30T19:07:45.445Z,1.09
2023-01-30T19:10:18.504Z,1.13
2023-01-30T19:13:10.007Z,1.14
2023-01-30T19:15:42.960Z,1.15
2023-01-30T19:18:15.562Z,1.12
2023-01-30T19:20:48.122Z,1.09
2023-01-30T19:23:21.191Z,1.04
2023-01-30T19:26:01.060Z,1.03
2023-01-30T19:28:35.450Z,1.02
2023-01-30T19:31:32.582Z,1.04
2023-01-30T19:34:06.610Z,1.13
2023-01-30T19:36:41.717Z,1.22
2023-01-30T19:39:14.434Z,1.28
2023-01-30T19:41:46.949Z,1.31
2023-01-30T19:44:19.493Z,1.35
2023-01-30T19:46:52.655Z,1.37
2023-01-30T19:49:25.155Z,1.36
2023-01-30T19:51:59.312Z,1.41
2023-01-30T19:54:32.465Z,1.38
2023-01-30T19:57:04.951Z,1.40
2023-01-30T19:59:38.954Z,1.40
2023-01-30T20:02:11.851Z,1.37
2023-01-30T20:04:44.743Z,1.33
2023-01-30T20:07:17.311Z,1.32
2023-01-30T20:09:50.275Z,1.25
2023-01-30T20:12:24.202Z,1.21
2023-01-30T20:14:56.867Z,1.14
2023-01-30T20:17:29.891Z,1.04
2023-01-30T20:20:14.584Z,1.03
2023-01-30T20:22:49.000Z,1.01
2023-01-30T20:25:24.212Z,0.97
2023-01-30T20:27:56.958Z,0.97
2023-01-30T20:30:29.806Z,0.97
2023-01-30T20:33:03.232Z,0.96
2023-01-30T20:35:36.027Z,0.92
2023-01-30T20:38:08.667Z,0.93
2023-01-30T20:40:41.283Z,0.93
2023-01-30T20:43:14.572Z,0.90
2023-01-30T20:45:47.259Z,0.90
2023-01-30T20:48:19.829Z,0.93
2023-01-30T20:50:52.815Z,0.90
2023-01-30T20:53:26.374Z,0.87
2023-01-30T20:56:00.969Z,0.85
2023-01-30T20:58:34.225Z,0.85
2023-01-30T21:01:17.940Z,0.84
2023-01-30T21:03:50.678Z,0.80
2023-01-30T21:06:37.228Z,0.83
2023-01-30T21:09:01.260Z,0.84
2023-01-30T21:11:35.314Z,0.82
2023-01-30T21:14:08.781Z,0.79
2023-01-30T21:16:41.827Z,0.73
2023-01-30T21:19:17.175Z,0.74
2023-01-30T21:21:53.831Z,0.74
2023-01-30T21:24:28.968Z,0.76
2023-01-30T21:27:02.112Z,0.75
2023-01-30T21:29:36.877Z,0.71
2023-01-30T21:32:09.594Z,0.75
2023-01-30T21:34:42.575Z,0.71
2023-01-30T21:37:32.944Z,0.71
2023-01-30T21:40:24.616Z,0.74
2023-01-30T21:43:16.775Z,0.77
2023-01-30T21:45:49.251Z,0.75
2023-01-30T21:48:21.744Z,0.74
2023-01-30T21:50:54.206Z,0.74
2023-01-30T21:53:26.936Z,0.70
2023-01-30T21:55:59.906Z,0.69
2023-01-30T21:58:32.997Z,0.69
2023-01-30T22:01:09.167Z,0.71
2023-01-30T22:03:42.137Z,0.72
2023-01-30T22:06:14.862Z,0.75
2023-01-30T22:08:47.548Z,0.77
2023-01-30T22:11:20.055Z,0.77
2023-01-30T22:13:53.650Z,0.74
2023-01-30T22:16:28.692Z,0.77
2023-01-30T22:19:03.968Z,0.82
2023-01-30T22:21:40.105Z,0.85
2023-01-30T22:24:12.736Z,0.88
2023-01-30T22:26:45.371Z,0.87
2023-01-30T22:29:18.236Z,0.82
2023-01-30T22:31:51.044Z,0.77
2023-01-30T22:34:24.170Z,0.76
2023-01-30T22:36:56.786Z,0.76
2023-01-30T22:39:29.361Z,0.75
2023-01-30T22:42:01.930Z,0.77
2023-01-30T22:44:34.688Z,0.75
2023-01-30T22:47:07.833Z,0.75
2023-01-30T22:49:41.560Z,0.79
2023-01-30T22:52:14.037Z,0.77
2023-01-30T22:54:46.538Z,0.75
2023-01-30T22:57:19.320Z,0.77
2023-01-30T22:59:52.636Z,0.78
2023-01-30T23:02:25.635Z,0.78
2023-01-30T23:04:58.659Z,0.80
2023-01-30T23:07:31.435Z,0.82
2023-01-30T23:10:03.996Z,0.83
2023-01-30T23:12:54.874Z,0.81
2023-01-30T23:15:27.369Z,0.81
2023-01-30T23:18:17.389Z,0.83
2023-01-30T23:20:49.757Z,0.91
2023-01-30T23:23:22.235Z,0.92
2023-01-30T23:25:55.068Z,0.92
2023-01-30T23:28:27.647Z,0.88
2023-01-30T23:31:02.699Z,0.87
2023-01-30T23:33:37.004Z,0.88
2023-01-30T23:36:12.762Z,0.93
2023-01-30T23:38:47.059Z,0.93
2023-01-30T23:41:28.991Z,0.93
2023-01-30T23:44:01.942Z,0.95
2023-01-30T23:46:37.784Z,0.98
2023-01-30T23:49:14.062Z,1.00
2023-01-30T23:51:47.395Z,0.97
2023-01-30T23:54:20.515Z,0.93
2023-01-30T23:56:52.937Z,0.92
2023-01-30T23:59:25.425Z,0.94
